Time;durP1;ratioP1;P1;durP2;ratioP2;P2;SDS_P1;SDS_P2;PMS_P1;PMS_P2;Temp;Humidity;BMP_temperature;BMP_pressure;BME280_temperature;BME280_humidity;BME280_pressure;Samples;Min_cycle;Max_cycle;Signal;HPM_P1;HPM_P2
2021/07/02 00:02:18;;;;;;;5.40;3.67;;;;;;;20.07;70.39;99205.44;5067109;28;20382;-68
2021/07/02 00:04:55;;;;;;;6.13;4.13;;;;;;;20.02;70.88;99203.31;5061041;28;20496;-65
2021/07/02 00:07:34;;;;;;;;;;;;;;;20.27;69.79;99201.97;5067326;28;20716;-67
2021/07/02 00:10:12;;;;;;;7.65;3.70;;;;;;;20.10;70.27;99202.31;5066936;28;20913;-61
2021/07/02 00:12:51;;;;;;;4.97;3.70;;;;;;;20.04;70.49;99203.13;5066513;28;20380;-68
2021/07/02 00:15:28;;;;;;;4.35;3.33;;;;;;;19.94;70.67;99192.63;5115021;27;20704;-64
2021/07/02 00:18:07;;;;;;;3.90;3.60;;;;;;;19.91;70.55;99188.41;5112074;27;20388;-67
2021/07/02 00:20:44;;;;;;;4.20;3.80;;;;;;;19.86;70.92;99182.72;5071478;28;20464;-66
2021/07/02 00:23:26;;;;;;;3.65;3.30;;;;;;;19.83;70.84;99180.41;5072488;28;20744;-66
2021/07/02 00:26:05;;;;;;;7.03;3.75;;;;;;;19.74;71.34;99181.56;5124236;27;20374;-65
2021/07/02 00:28:48;;;;;;;5.47;3.22;;;;;;;19.72;71.40;99175.50;5111682;27;20372;-65
2021/07/02 00:31:26;;;;;;;;;;;;;;;19.91;70.47;99177.53;5115261;27;20373;-66
2021/07/02 00:34:03;;;;;;;;;;;;;;;19.96;70.10;99173.38;5071354;28;20704;-65
2021/07/02 00:36:43;;;;;;;3.45;3.15;;;;;;;19.69;71.16;99171.34;5090245;27;20384;-62
2021/07/02 00:39:20;;;;;;;6.25;3.22;;;;;;;19.56;71.59;99163.94;5148348;27;20039;-65
2021/07/02 00:42:00;;;;;;;5.15;3.40;;;;;;;19.53;71.71;99169.75;5070362;28;20379;-67
2021/07/02 00:44:47;;;;;;;6.60;3.25;;;;;;;19.48;72.17;99177.66;5124441;27;20048;-65
2021/07/02 00:47:25;;;;;;;4.13;3.38;;;;;;;19.46;72.24;99175.16;5068488;28;20376;-64
2021/07/02 00:50:05;;;;;;;;;;;;;;;19.70;71.52;99180.31;5090415;28;20122;-65
2021/07/02 00:52:45;;;;;;;3.58;3.28;;;;;;;19.39;71.62;99146.28;5108424;27;20382;-66
2021/07/02 00:55:22;;;;;;;5.15;3.60;;;;;;;19.47;71.80;99160.53;5072328;28;20497;-65
2021/07/02 00:58:03;;;;;;;3.70;3.42;;;;;;;19.45;72.01;99153.63;5109243;27;20369;-65
2021/07/02 01:00:51;;;;;;;;;;;;;;;19.77;70.66;99165.72;5067843;28;20383;-63
2021/07/02 01:03:29;;;;;;;4.55;3.70;;;;;;;19.41;71.55;99133.34;5118171;27;1304082;-66
2021/07/02 01:06:13;;;;;;;6.13;3.97;;;;;;;19.47;71.77;99159.69;5069184;28;20870;-66
2021/07/02 01:08:50;;;;;;;4.28;3.88;;;;;;;19.54;72.05;99163.31;5068590;28;20875;-64
2021/07/02 01:11:27;;;;;;;;;;;;;;;19.82;71.19;99173.28;5069491;27;20380;-65
2021/07/02 01:24:31;;;;;;;5.00;4.38;;;;;;;20.07;69.84;99180.97;5135876;27;20382;-65
2021/07/02 01:27:07;;;;;;;7.72;5.03;;;;;;;19.99;70.31;99176.53;5089947;28;20374;-64
2021/07/02 01:29:44;;;;;;;9.23;5.63;;;;;;;19.93;70.61;99167.31;5068267;28;20399;-62
2021/07/02 01:32:20;;;;;;;9.85;5.07;;;;;;;19.96;70.80;99174.22;5086944;27;20373;-65
2021/07/02 01:34:58;;;;;;;9.63;6.28;;;;;;;19.96;70.77;99182.38;5163464;27;19925;-65
2021/07/02 01:37:35;;;;;;;8.18;6.68;;;;;;;19.94;71.01;99182.56;5066587;28;20736;-64
2021/07/02 01:40:17;;;;;;;8.48;6.60;;;;;;;19.97;71.03;99185.91;5062968;28;20749;-66
2021/07/02 01:42:56;;;;;;;;;;;;;;;20.18;70.26;99188.53;5067302;28;20398;-67
2021/07/02 01:45:33;;;;;;;7.57;6.28;;;;;;;19.94;70.55;99177.13;5110350;27;20619;-66
2021/07/02 01:48:12;;;;;;;8.35;6.70;;;;;;;19.91;70.98;99177.53;5067234;28;20721;-67
2021/07/02 01:50:50;;;;;;;10.13;7.13;;;;;;;19.90;70.79;99183.16;5108838;27;20040;-64
2021/07/02 01:53:29;;;;;;;;;;;;;;;20.12;70.67;99178.47;5110696;27;20372;-65
2021/07/02 01:56:06;;;;;;;8.75;6.15;;;;;;;19.97;70.47;99169.63;5087520;27;21001;-63
2021/07/02 01:58:45;;;;;;;8.98;6.80;;;;;;;19.92;70.71;99170.25;5067454;28;20399;-65
2021/07/02 02:01:23;;;;;;;10.27;7.15;;;;;;;19.87;70.76;99168.09;5069340;28;20072;-61
2021/07/02 02:04:01;;;;;;;8.55;6.90;;;;;;;19.89;70.68;99171.44;5072995;27;20393;-65
2021/07/02 02:06:39;;;;;;;8.18;6.95;;;;;;;19.91;70.64;99176.72;5087463;27;20129;-63
2021/07/02 02:09:18;;;;;;;9.73;7.30;;;;;;;19.88;70.77;99166.19;5067174;28;20727;-65
2021/07/02 02:11:55;;;;;;;9.52;6.28;;;;;;;19.86;70.88;99173.72;5070846;28;20055;-63
2021/07/02 02:14:37;;;;;;;7.93;6.22;;;;;;;19.86;71.08;99162.84;5071229;28;20394;-66
2021/07/02 02:17:13;;;;;;;7.47;6.00;;;;;;;19.83;70.82;99174.13;5070691;28;20383;-65
2021/07/02 02:19:49;;;;;;;7.13;5.80;;;;;;;19.86;71.06;99174.56;5070099;28;20379;-65
2021/07/02 02:22:28;;;;;;;6.15;5.55;;;;;;;19.86;70.92;99169.13;5127563;27;20559;-64
2021/07/02 02:25:09;;;;;;;9.63;6.35;;;;;;;19.94;70.79;99166.25;5110432;27;20383;-67
2021/07/02 02:27:47;;;;;;;6.93;5.88;;;;;;;19.91;70.74;99169.38;5070000;27;1989430;-61
2021/07/02 02:30:28;;;;;;;;;;;;;;;20.21;70.32;99171.00;5082006;27;20382;-66
2021/07/02 02:33:08;;;;;;;11.50;6.03;;;;;;;20.08;70.07;99160.91;5070080;28;20379;-67
2021/07/02 02:35:54;;;;;;;;;;;;;;;20.37;69.40;99175.22;5097071;27;20485;-67
2021/07/02 02:38:30;;;;;;;6.68;5.55;;;;;;;20.18;69.34;99174.94;5109805;27;20377;-64
2021/07/02 02:41:09;;;;;;;;;;;;;;;20.45;68.83;99168.78;5055201;28;20741;-67
2021/07/02 02:43:46;;;;;;;8.48;5.22;;;;;;;20.30;69.00;99174.38;5087027;27;20846;-64
2021/07/02 02:46:23;;;;;;;6.85;5.70;;;;;;;20.28;69.14;99165.59;5069081;28;20371;-65
2021/07/02 02:48:59;;;;;;;6.50;5.60;;;;;;;20.33;69.06;99163.09;5067155;28;20376;-64
2021/07/02 02:51:36;;;;;;;7.72;5.30;;;;;;;20.34;68.64;99171.03;5092257;28;20374;-65
2021/07/02 02:54:17;;;;;;;8.57;6.25;;;;;;;20.36;68.53;99168.13;5069748;28;20385;-67
2021/07/02 02:57:04;;;;;;;;;;;;;;;20.56;68.13;99176.31;5122746;27;20330;-66
2021/07/02 02:59:41;;;;;;;8.70;5.25;;;;;;;20.37;68.80;99162.44;5107142;27;20884;-65
2021/07/02 03:02:17;;;;;;;7.82;5.97;;;;;;;20.34;69.11;99167.47;5068026;28;20387;-63
2021/07/02 03:04:59;;;;;;;9.38;5.90;;;;;;;20.19;69.45;99145.91;5067870;28;20375;-66
2021/07/02 03:07:35;;;;;;;;;;;;;;;20.56;68.73;99170.06;5087422;28;20382;-64
2021/07/02 03:10:11;;;;;;;8.55;6.15;;;;;;;20.37;69.31;99175.22;5070224;28;20513;-65
2021/07/02 03:12:53;;;;;;;;;;;;;;;20.57;68.63;99179.88;5068148;28;20371;-67
2021/07/02 03:15:28;;;;;;;7.70;5.95;;;;;;;20.35;68.75;99183.56;5099827;27;1299041;-64
2021/07/02 03:18:10;;;;;;;;;;;;;;;20.52;68.48;99188.66;5067614;28;20383;-65
2021/07/02 03:20:46;;;;;;;11.45;6.38;;;;;;;20.29;68.93;99180.84;5071898;28;20724;-63
2021/07/02 03:23:22;;;;;;;8.45;6.47;;;;;;;20.22;69.54;99175.38;5071814;28;20383;-64
2021/07/02 03:26:04;;;;;;;9.10;6.78;;;;;;;20.21;69.35;99169.09;5075088;28;20378;-67
2021/07/02 03:28:40;;;;;;;8.25;7.28;;;;;;;20.16;69.87;99174.31;5069489;28;20875;-64
2021/07/02 03:31:17;;;;;;;8.88;7.10;;;;;;;20.17;69.65;99180.59;5124742;27;20379;-64
2021/07/02 03:34:02;;;;;;;8.52;7.07;;;;;;;20.19;69.66;99179.34;5072218;28;20382;-65
2021/07/02 03:36:38;;;;;;;9.25;6.30;;;;;;;20.35;69.25;99178.13;5068920;28;20743;-65
2021/07/02 03:39:18;;;;;;;8.02;5.72;;;;;;;20.50;68.69;99178.00;5123909;27;20384;-64
2021/07/02 03:41:55;;;;;;;9.52;6.00;;;;;;;20.72;68.22;99183.25;5091419;28;20492;-64
2021/07/02 03:44:34;;;;;;;;;;;;;;;21.27;66.79;99179.59;5106689;27;21228;-67
2021/07/02 03:47:11;;;;;;;6.07;4.85;;;;;;;21.54;65.11;99160.50;5070626;28;20398;-62
2021/07/02 03:49:51;;;;;;;5.40;4.85;;;;;;;21.94;63.81;99171.31;5110573;27;20373;-65
2021/07/02 03:52:29;;;;;;;6.20;5.18;;;;;;;22.28;62.80;99171.16;5067258;28;20130;-65
2021/07/02 03:55:06;;;;;;;6.60;4.85;;;;;;;22.54;61.81;99171.28;5068886;28;20677;-64
2021/07/02 03:57:45;;;;;;;;;;;;;;;23.14;60.90;99175.47;5070043;28;20827;-64
2021/07/02 04:00:22;;;;;;;;;;;;;;;23.60;59.67;99174.25;5068508;28;20689;-65
2021/07/02 04:03:02;;;;;;;;;;;;;;;23.91;58.22;99169.75;5068296;28;20379;-65
2021/07/02 04:05:43;;;;;;;;;;;;;;;24.04;58.07;99176.13;5067671;28;20371;-65
2021/07/02 04:08:20;;;;;;;;;;;;;;;24.06;58.02;99176.75;5068554;28;20394;-65
2021/07/02 04:11:03;;;;;;;;;;;;;;;24.05;58.05;99170.44;5089025;28;20371;-68
2021/07/02 04:13:39;;;;;;;;;;;;;;;24.02;57.79;99170.06;5124166;27;20384;-67
2021/07/02 04:16:16;;;;;;;;;;;;;;;24.02;57.79;99175.53;5071013;28;20397;-64
2021/07/02 04:18:53;;;;;;;;;;;;;;;24.01;57.84;99176.56;5109262;27;20399;-65
2021/07/02 04:21:37;;;;;;;;;;;;;;;24.04;57.55;99178.88;5110938;27;20381;-67
2021/07/02 04:24:13;;;;;;;4.22;3.83;;;;;;;23.74;57.39;99179.59;5083122;27;1671470;-64
2021/07/02 04:26:49;;;;;;;;;;;;;;;23.98;57.18;99177.84;5067605;28;20701;-63
2021/07/02 04:29:26;;;;;;;;;;;;;;;23.94;56.77;99184.84;5068636;28;20382;-63
2021/07/02 04:32:12;;;;;;;;;;;;;;;23.72;57.36;99181.72;5097415;27;1353332;-66
2021/07/02 04:34:54;;;;;;;;;;;;;;;23.44;58.14;99191.25;5066861;28;20380;-66
2021/07/02 04:37:30;;;;;;;;;;;;;;;23.28;58.80;99188.00;5068344;28;20384;-63
2021/07/02 04:40:07;;;;;;;;;;;;;;;23.30;58.67;99180.44;5108110;27;20376;-63
2021/07/02 04:43:03;;;;;;;;;;;;;;;23.40;58.39;99184.56;5064135;27;20385;-65
2021/07/02 04:45:39;;;;;;;;;;;;;;;23.60;58.13;99195.31;5069266;28;20379;-65
2021/07/02 04:48:21;;;;;;;;;;;;;;;23.64;57.81;99191.06;5069979;28;20379;-67
2021/07/02 04:50:58;;;;;;;;;;;;;;;23.62;57.60;99190.44;5158547;27;20519;-65
2021/07/02 04:53:34;;;;;;;;;;;;;;;23.57;57.78;99193.84;5067139;28;20533;-65
2021/07/02 04:56:16;;;;;;;;;;;;;;;23.73;57.48;99194.31;5068627;28;20371;-64
2021/07/02 04:58:55;;;;;;;;;;;;;;;23.88;57.06;99186.59;5069883;28;20720;-65
2021/07/02 05:01:31;;;;;;;;;;;;;;;24.02;56.81;99187.31;5107510;27;20391;-66
2021/07/02 05:04:22;;;;;;;;;;;;;;;24.04;56.43;99189.81;5127586;27;20375;-63
2021/07/02 05:06:58;;;;;;;;;;;;;;;24.22;55.77;99195.28;5070373;28;20379;-64
2021/07/02 05:09:35;;;;;;;;;;;;;;;24.34;55.66;99199.97;5068056;28;20379;-65
2021/07/02 05:12:20;;;;;;;;;;;;;;;24.32;55.59;99202.94;5069039;27;20949;-65
2021/07/02 05:14:56;;;;;;;;;;;;;;;24.22;55.77;99195.28;5108950;27;20385;-65
2021/07/02 05:17:33;;;;;;;;;;;;;;;24.07;55.25;99200.28;5123724;27;20372;-63
2021/07/02 05:20:10;;;;;;;;;;;;;;;23.93;56.27;99202.31;5070990;28;20885;-65
2021/07/02 05:22:46;;;;;;;;;;;;;;;23.83;56.63;99208.28;5067717;28;20387;-64
2021/07/02 05:25:34;;;;;;;;;;;;;;;23.70;56.87;99205.72;5067984;28;20383;-66
2021/07/02 05:28:10;;;;;;;;;;;;;;;23.50;57.26;99204.81;5127697;27;20380;-63
2021/07/02 05:30:55;;;;;;;;;;;;;;;23.29;57.83;99199.78;5070195;28;20383;-66
2021/07/02 05:33:33;;;;;;;;;;;;;;;23.09;58.09;99198.84;5146455;27;20411;-67
2021/07/02 05:36:11;;;;;;;;;;;;;;;22.88;58.64;99204.66;5068367;28;20913;-68
2021/07/02 05:38:47;;;;;;;7.63;4.75;;;;;;;22.28;60.04;99205.78;5095829;27;1298299;-66
2021/07/02 05:41:23;;;;;;;;;;;;;;;22.33;60.24;99206.81;5112675;27;20946;-66
2021/07/02 05:44:00;;;;;;;;;;;;;;;22.29;60.04;99202.00;5074366;28;20376;-67
2021/07/02 05:46:45;;;;;;;;;;;;;;;22.22;60.23;99210.22;5107975;27;20155;-66
2021/07/02 05:49:21;;;;;;;;;;;;;;;22.18;60.30;99201.63;5103147;27;20381;-65
2021/07/02 05:51:58;;;;;;;;;;;;;;;22.23;60.10;99204.56;5125062;27;20367;-64
2021/07/02 05:54:34;;;;;;;;;;;;;;;22.40;60.06;99204.03;5057227;28;20924;-64
2021/07/02 05:57:11;;;;;;;;;;;;;;;22.60;59.39;99197.69;5128279;27;20383;-61
2021/07/02 05:59:53;;;;;;;;;;;;;;;22.78;58.80;99194.22;5058302;28;20380;-63
2021/07/02 06:02:29;;;;;;;;;;;;;;;22.86;58.26;99196.72;5107266;27;20385;-70
2021/07/02 06:05:06;;;;;;;;;;;;;;;22.86;58.44;99201.31;5078524;27;20386;-72
2021/07/02 06:07:52;;;;;;;;;;;;;;;22.90;58.44;99199.81;5108579;27;20424;-72
2021/07/02 06:10:30;;;;;;;;;;;;;;;22.95;58.16;99197.28;5086753;27;20393;-72
2021/07/02 06:13:07;;;;;;;;;;;;;;;23.02;58.13;99195.31;5128494;27;20340;-75
2021/07/02 06:15:43;;;;;;;;;;;;;;;23.19;57.72;99194.78;5067917;28;20735;-75
2021/07/02 06:18:20;;;;;;;;;;;;;;;23.33;57.43;99196.38;5094464;27;20386;-73
2021/07/02 06:20:56;;;;;;;;;;;;;;;23.36;57.20;99195.09;5045745;28;20387;-72
2021/07/02 06:23:34;;;;;;;;;;;;;;;23.35;57.38;99193.44;5107159;27;20372;-76
2021/07/02 06:26:12;;;;;;;;;;;;;;;23.31;57.47;99195.75;5068105;28;20398;-72
2021/07/02 06:28:51;;;;;;;;;;;;;;;23.24;57.52;99192.22;5149105;27;20370;-74
2021/07/02 06:31:26;;;;;;;6.43;4.45;;;;;;;22.85;58.54;99188.72;5094032;27;1305879;-73
2021/07/02 06:34:03;;;;;;;;;;;;;;;23.03;58.30;99198.88;5067423;27;20708;-78
2021/07/02 06:36:39;;;;;;;;;;;;;;;23.13;58.01;99190.19;5070101;28;20383;-76
2021/07/02 06:39:21;;;;;;;;;;;;;;;23.18;57.90;99190.38;5066862;28;20374;-67
2021/07/02 06:41:56;;;;;;;6.88;5.38;;;;;;;22.86;58.53;99182.22;5064315;27;1295908;-70
2021/07/02 06:44:40;;;;;;;;;;;;;;;23.13;58.39;99192.94;5067467;27;20745;-69
2021/07/02 06:47:15;;;;;;;6.43;5.50;;;;;;;22.86;58.70;99193.13;5085685;27;1363145;-68
2021/07/02 06:49:52;;;;;;;;;;;;;;;23.03;58.64;99198.88;5067257;28;20906;-69
2021/07/02 06:52:28;;;;;;;;;;;;;;;23.07;58.28;99203.69;5066837;28;20375;-70
2021/07/02 06:55:05;;;;;;;;;;;;;;;23.12;58.19;99207.63;5108498;27;20373;-71
2021/07/02 06:57:42;;;;;;;;;;;;;;;23.17;57.87;99192.28;5067505;28;20736;-69
2021/07/02 07:00:19;;;;;;;;;;;;;;;23.17;57.91;99195.00;5086665;27;20371;-69
2021/07/02 07:03:03;;;;;;;;;;;;;;;23.32;57.59;99188.41;5108537;27;20365;-72
2021/07/02 07:05:40;;;;;;;8.68;5.63;;;;;;;23.17;57.91;99189.53;5106117;27;1311239;-71
2021/07/02 07:08:16;;;;;;;;;;;;;;;23.41;57.27;99191.69;5108289;27;20377;-67
2021/07/02 07:10:53;;;;;;;;;;;;;;;23.55;56.79;99187.78;5067617;27;20391;-71
2021/07/02 07:13:29;;;;;;;;;;;;;;;23.74;55.81;99194.09;5067918;28;20387;-71
2021/07/02 07:16:06;;;;;;;;;;;;;;;23.99;55.59;99192.38;5066815;28;20394;-71
2021/07/02 07:18:42;;;;;;;;;;;;;;;24.27;55.17;99185.53;5109325;27;20725;-74
2021/07/02 07:21:19;;;;;;;;;;;;;;;24.73;54.41;99183.25;5068396;28;20387;-72
2021/07/02 07:23:59;;;;;;;;;;;;;;;25.35;53.34;99185.66;5067928;28;20375;-73
2021/07/02 07:26:36;;;;;;;;;;;;;;;26.05;51.38;99182.31;5109067;27;20125;-72
2021/07/02 07:29:18;;;;;;;;;;;;;;;26.62;49.85;99173.28;5108498;27;20369;-69
2021/07/02 07:31:55;;;;;;;;;;;;;;;27.22;49.04;99172.97;5068157;28;20863;-70
2021/07/02 07:37:20;;;;;;;;;;;;;;;28.16;46.86;99173.25;5068236;28;20376;-67
2021/07/02 07:39:58;;;;;;;5.85;4.70;;;;;;;28.00;45.35;99169.44;5104399;27;20525;-71
2021/07/02 07:42:36;;;;;;;9.20;4.68;;;;;;;28.19;44.87;99169.97;5062058;28;20169;-70
2021/07/02 07:45:13;;;;;;;6.40;5.55;;;;;;;28.26;44.01;99166.22;5048913;28;20132;-73
2021/07/02 07:47:50;;;;;;;9.90;5.30;;;;;;;27.99;44.33;99172.47;5004566;28;20384;-74
2021/07/02 07:50:29;;;;;;;6.32;4.53;;;;;;;28.74;43.15;99161.78;5108482;27;20373;-71
2021/07/02 07:53:06;;;;;;;9.50;4.07;;;;;;;29.30;41.17;99168.03;5088199;28;20378;-71
2021/07/02 07:55:44;;;;;;;9.30;4.20;;;;;;;29.32;40.72;99166.69;5087699;27;20668;-70
2021/07/02 07:58:20;;;;;;;5.68;4.35;;;;;;;29.23;40.71;99168.28;5106161;27;20895;-71
2021/07/02 08:01:00;;;;;;;7.25;4.25;;;;;;;28.90;41.25;99176.53;5066907;28;20383;-69
2021/07/02 08:03:37;;;;;;;4.75;4.35;;;;;;;28.52;41.89;99170.06;5086980;27;20130;-70
2021/07/02 08:06:14;;;;;;;4.93;3.78;;;;;;;28.07;42.85;99169.25;5067961;28;20372;-75
2021/07/02 08:08:50;;;;;;;5.22;4.15;;;;;;;27.33;44.69;99161.06;5108534;27;20857;-71
2021/07/02 08:11:35;;;;;;;5.22;3.95;;;;;;;26.72;45.24;99172.66;5150167;27;20373;-74
2021/07/02 08:14:11;;;;;;;6.72;3.65;;;;;;;26.44;46.07;99177.06;5106613;27;1310109;-74
2021/07/02 08:16:52;;;;;;;3.88;3.47;;;;;;;26.08;46.84;99170.84;5068169;28;20846;-73
2021/07/02 08:19:41;;;;;;;5.30;3.40;;;;;;;25.84;47.61;99179.13;5068722;28;20383;-73
2021/07/02 08:32:40;;;;;;;6.28;3.08;;;;;;;27.00;45.35;99173.72;5082139;27;1364780;-71
2021/07/02 08:35:24;;;;;;;8.07;3.55;;;;;;;27.07;45.54;99174.41;5067410;28;20380;-72
2021/07/02 08:38:08;;;;;;;;;;;;;;;27.86;44.75;99173.69;5067385;28;20371;-72
2021/07/02 08:40:53;;;;;;;5.18;3.15;;;;;;;28.15;43.25;99166.06;5109336;27;20369;-72
2021/07/02 08:43:35;;;;;;;7.43;3.67;;;;;;;28.20;42.68;99141.38;5067556;28;20375;-74
2021/07/02 08:46:24;;;;;;;3.50;3.10;;;;;;;28.52;42.25;99159.06;5067273;28;20870;-70
2021/07/02 08:49:04;;;;;;;4.63;3.42;;;;;;;28.81;41.60;99167.06;5108228;27;20376;-70
2021/07/02 08:51:43;;;;;;;4.05;3.22;;;;;;;29.08;40.85;99158.78;5124036;27;20404;-69
2021/07/02 08:54:31;;;;;;;3.72;3.33;;;;;;;29.25;39.97;99154.22;5128649;27;20333;-70
2021/07/02 08:57:13;;;;;;;3.45;2.78;;;;;;;29.35;39.84;99155.13;5087847;27;20723;-70
2021/07/02 09:00:01;;;;;;;4.85;3.20;;;;;;;29.29;39.78;99167.22;5128212;27;20372;-69
2021/07/02 09:02:42;;;;;;;6.72;3.60;;;;;;;28.92;40.62;99162.50;5090370;27;20396;-70
2021/07/02 09:05:33;;;;;;;4.28;3.58;;;;;;;28.67;41.28;99172.16;5066882;28;20868;-69
2021/07/02 09:08:18;;;;;;;5.97;3.70;;;;;;;28.53;41.23;99154.41;5170830;27;20132;-71
2021/07/02 09:11:26;;;;;;;5.82;3.50;;;;;;;28.99;41.26;99163.13;5067363;28;20372;-70
2021/07/02 09:14:08;;;;;;;7.03;3.55;;;;;;;29.14;40.57;99156.06;5087375;28;20370;-71
2021/07/02 09:16:52;;;;;;;5.75;3.50;;;;;;;29.51;40.19;99147.00;5067394;28;20399;-69
2021/07/02 09:19:35;;;;;;;12.45;5.65;;;;;;;29.97;39.15;99149.16;5087421;27;20373;-69
2021/07/02 09:22:24;;;;;;;5.90;4.20;;;;;;;30.39;38.38;99157.63;5067601;28;20383;-69
2021/07/02 09:25:09;;;;;;;7.90;3.70;;;;;;;30.19;37.85;99160.06;5056525;28;20702;-70
2021/07/02 09:27:50;;;;;;;6.00;3.50;;;;;;;29.90;38.29;99160.47;5128885;27;20400;-71
2021/07/02 09:30:41;;;;;;;3.97;3.58;;;;;;;29.93;38.54;99154.41;5068147;28;20368;-70
2021/07/02 09:33:27;;;;;;;7.60;3.85;;;;;;;29.91;38.51;99158.50;5088058;27;20377;-71
2021/07/02 09:36:17;;;;;;;6.05;3.80;;;;;;;29.71;38.93;99148.22;5067267;28;20375;-69
2021/07/02 09:39:02;;;;;;;5.50;3.58;;;;;;;29.79;38.70;99169.75;5068034;28;20375;-69
2021/07/02 09:41:46;;;;;;;4.78;3.55;;;;;;;29.54;39.29;99157.50;5067564;28;20383;-70
2021/07/02 09:44:31;;;;;;;5.82;3.53;;;;;;;29.69;38.93;99153.16;5169976;27;19926;-71
2021/07/02 09:47:29;;;;;;;6.70;3.67;;;;;;;29.49;39.08;99165.72;5067586;28;20383;-70
2021/07/02 09:50:15;;;;;;;4.13;3.45;;;;;;;28.88;39.73;99175.13;5066555;28;20045;-69
2021/07/02 09:52:44;;;;;;;;;;;;;;;28.79;40.87;99181.13;5066365;28;20047;-70
2021/07/02 09:55:10;;;;;;;5.57;3.60;;;;;;;27.90;41.20;99169.31;5066601;28;19919;-69
2021/07/02 09:57:35;;;;;;;7.10;3.80;;;;;;;27.58;41.82;99170.81;5047777;28;20033;-70
2021/07/02 10:00:03;;;;;;;4.40;3.72;;;;;;;27.66;41.96;99166.81;5063849;28;20035;-71
2021/07/02 10:02:29;;;;;;;5.25;3.80;;;;;;;27.62;42.30;99152.72;5067258;28;20024;-69
2021/07/02 10:04:58;;;;;;;4.47;4.07;;;;;;;27.42;42.43;99163.38;5067240;28;20032;-69
2021/07/02 10:07:25;;;;;;;4.22;3.83;;;;;;;27.35;42.64;99138.81;5066565;28;20036;-69
2021/07/02 10:09:50;;;;;;;4.30;3.67;;;;;;;27.76;42.34;99149.63;5052495;28;20025;-67
2021/07/02 10:12:18;;;;;;;5.07;4.15;;;;;;;28.02;41.78;99155.44;5046520;28;20033;-69
2021/07/02 10:14:44;;;;;;;5.18;4.45;;;;;;;27.90;41.60;99147.31;5047437;28;20166;-70
2021/07/02 10:17:10;;;;;;;5.60;4.30;;;;;;;27.68;42.43;99155.53;5047533;28;20477;-69
2021/07/02 10:19:36;;;;;;;4.82;4.15;;;;;;;27.59;42.96;99144.97;5046353;28;20061;-70
2021/07/02 10:22:02;;;;;;;6.60;4.47;;;;;;;27.51;43.31;99151.75;5046667;28;20452;-70
2021/07/02 10:24:28;;;;;;;9.30;5.10;;;;;;;27.45;43.62;99147.22;5029847;28;20373;-70
2021/07/02 10:26:54;;;;;;;6.70;4.68;;;;;;;27.45;43.75;99146.38;5056839;28;20024;-69
2021/07/02 10:29:20;;;;;;;6.15;5.03;;;;;;;27.50;43.91;99150.03;5067085;28;20522;-71
2021/07/02 10:31:45;;;;;;;6.18;4.63;;;;;;;27.47;43.77;99149.72;5066447;28;20482;-70
2021/07/02 10:34:11;;;;;;;5.25;4.70;;;;;;;27.33;43.55;99161.06;5065579;28;20029;-69
2021/07/02 10:36:39;;;;;;;6.80;5.20;;;;;;;27.29;43.49;99159.06;5067243;28;20408;-69
2021/07/02 10:39:30;;;;;;;5.68;4.50;;;;;;;27.52;43.40;99174.56;5066450;28;20039;-71
2021/07/02 10:42:11;;;;;;;5.28;4.15;;;;;;;27.67;42.69;99184.97;5064537;28;20033;-72
2021/07/02 10:44:55;;;;;;;7.32;4.90;;;;;;;27.73;42.73;99180.34;5065161;28;20029;-76
2021/07/02 10:47:22;;;;;;;5.10;4.60;;;;;;;27.61;42.72;99173.06;5065575;28;20040;-74
2021/07/02 10:49:50;;;;;;;4.97;4.25;;;;;;;27.58;42.49;99157.06;5064860;28;20043;-73
2021/07/02 10:52:22;;;;;;;4.88;4.43;;;;;;;27.68;42.36;99166.53;5065047;28;20024;-72
2021/07/02 10:54:49;;;;;;;4.95;4.55;;;;;;;27.62;42.14;99143.66;5066006;28;20527;-74
2021/07/02 10:57:18;;;;;;;3.83;3.53;;;;;;;27.99;42.07;99156.78;5058791;28;20033;-73
2021/07/02 10:59:49;;;;;;;4.72;4.05;;;;;;;28.24;41.33;99154.63;5052928;28;20540;-73
2021/07/02 11:02:18;;;;;;;5.15;3.78;;;;;;;28.09;41.17;99128.56;5053199;28;20437;-74
2021/07/02 11:04:45;;;;;;;5.38;4.22;;;;;;;28.08;41.54;99149.72;5052608;28;20067;-74
2021/07/02 11:07:13;;;;;;;3.92;3.55;;;;;;;28.07;42.42;99144.50;5052892;28;20032;-73
2021/07/02 11:09:51;;;;;;;4.00;3.58;;;;;;;27.86;42.39;99155.25;5051843;28;20053;-72
2021/07/02 11:12:17;;;;;;;4.60;3.30;;;;;;;27.43;43.41;99165.88;5051421;28;20115;-74
2021/07/02 11:14:52;;;;;;;4.45;2.90;;;;;;;27.41;43.60;99162.56;5053060;28;20170;-74
2021/07/02 11:17:30;;;;;;;3.20;2.80;;;;;;;27.42;43.25;99157.88;5053492;28;20175;-73
2021/07/02 11:20:12;;;;;;;4.28;2.80;;;;;;;27.61;43.13;99159.31;5053182;28;20120;-71
2021/07/02 11:22:57;;;;;;;3.15;2.75;;;;;;;28.05;42.07;99154.94;5052860;28;20064;-72
2021/07/02 11:25:35;;;;;;;3.20;2.60;;;;;;;28.45;41.28;99159.25;5053465;28;20058;-74
2021/07/02 11:28:05;;;;;;;2.60;2.40;;;;;;;28.49;41.45;99162.34;5050047;28;20111;-75
2021/07/02 11:30:40;;;;;;;2.53;2.30;;;;;;;28.27;41.16;99137.59;5052007;28;20021;-72
2021/07/02 11:33:08;;;;;;;2.67;2.47;;;;;;;28.26;41.16;99166.22;5051877;28;20025;-71
2021/07/02 11:35:39;;;;;;;2.95;2.40;;;;;;;27.82;41.64;99178.00;5053370;28;20439;-74
2021/07/02 11:38:08;;;;;;;3.75;2.10;;;;;;;27.25;42.34;99152.41;5052340;28;20028;-73
2021/07/02 11:40:36;;;;;;;2.50;2.30;;;;;;;27.00;43.37;99162.72;5052977;28;20086;-72
2021/07/02 11:43:06;;;;;;;3.22;2.58;;;;;;;26.80;44.21;99161.28;5052892;28;20095;-74
2021/07/02 11:45:44;;;;;;;2.92;2.50;;;;;;;26.71;45.14;99168.22;5050749;28;20049;-75
2021/07/02 11:48:31;;;;;;;3.05;2.40;;;;;;;26.64;45.16;99165.63;5052167;28;20060;-72
2021/07/02 11:50:56;;;;;;;3.30;2.38;;;;;;;26.75;45.28;99150.19;5051778;28;20477;-68
2021/07/02 11:53:40;;;;;;;3.15;2.33;;;;;;;27.13;44.23;99155.25;5052271;28;20044;-76
2021/07/02 11:56:06;;;;;;;3.53;2.25;;;;;;;27.17;44.58;99164.66;5050917;28;20033;-74
2021/07/02 11:58:37;;;;;;;3.15;2.85;;;;;;;27.21;44.07;99158.41;5052345;28;20048;-73
2021/07/02 12:01:45;;;;;;;3.40;3.08;;;;;;;27.21;44.08;99158.41;5052506;28;20051;-72
2021/07/02 12:04:18;;;;;;;6.15;2.88;;;;;;;26.98;44.36;99164.06;5051616;28;20112;-74
2021/07/02 12:06:45;;;;;;;4.05;2.65;;;;;;;26.89;44.83;99166.38;5050928;28;20423;-70
2021/07/02 12:09:11;;;;;;;3.17;2.85;;;;;;;26.85;45.07;99160.53;5051273;28;20033;-73
2021/07/02 12:11:52;;;;;;;5.63;2.70;;;;;;;26.78;45.47;99168.09;5052715;28;20044;-74
2021/07/02 12:14:33;;;;;;;3.25;2.78;;;;;;;26.48;45.45;99163.69;5050400;28;20032;-71
2021/07/02 12:17:01;;;;;;;3.70;2.60;;;;;;;26.29;46.39;99174.88;5051414;28;20110;-71
2021/07/02 12:19:29;;;;;;;4.15;2.58;;;;;;;25.90;46.58;99178.16;5050588;28;20033;-72
2021/07/02 12:22:06;;;;;;;2.80;2.60;;;;;;;25.54;47.86;99191.03;5051944;28;20029;-74
2021/07/02 12:24:42;;;;;;;3.20;2.60;;;;;;;25.44;47.97;99188.03;5049608;28;20021;-71
2021/07/02 12:27:14;;;;;;;3.88;2.40;;;;;;;25.54;47.54;99191.03;5051040;28;20036;-73
2021/07/02 12:29:41;;;;;;;3.85;2.50;;;;;;;25.71;47.39;99182.09;5050495;28;20466;-72
2021/07/02 12:32:13;;;;;;;4.57;2.35;;;;;;;25.96;47.32;99179.09;5047910;28;20029;-72
2021/07/02 12:34:41;;;;;;;3.80;2.33;;;;;;;26.14;46.62;99188.22;5049516;28;20370;-73
2021/07/02 12:37:14;;;;;;;3.30;2.35;;;;;;;26.05;46.73;99193.28;5051077;28;20033;-72
2021/07/02 12:39:47;;;;;;;3.63;2.30;;;;;;;25.73;47.87;99189.03;5050028;28;20029;-73
2021/07/02 12:42:22;;;;;;;2.80;2.35;;;;;;;25.41;48.81;99202.22;5051231;28;20036;-72
2021/07/02 12:44:49;;;;;;;7.53;2.78;;;;;;;25.12;49.13;99191.94;5050252;28;20411;-72
2021/07/02 12:47:15;;;;;;;3.10;2.80;;;;;;;24.86;49.78;99190.47;5049351;28;20437;-72
2021/07/02 12:50:00;;;;;;;3.45;2.50;;;;;;;24.79;50.18;99191.38;5049365;28;20554;-73
2021/07/02 12:54:56;;;;;;;3.35;2.65;;;;;;;24.50;50.77;99196.59;5047094;28;20041;-73
2021/07/02 12:57:23;;;;;;;2.55;2.35;;;;;;;24.45;50.69;99185.50;5050830;28;20427;-73
2021/07/02 13:00:06;;;;;;;3.15;2.65;;;;;;;24.55;50.57;99198.66;5051251;28;20507;-70
2021/07/02 13:02:47;;;;;;;3.20;2.40;;;;;;;24.48;50.14;99185.06;5034528;28;20196;-73
2021/07/02 13:05:18;;;;;;;3.65;2.55;;;;;;;24.40;50.26;99193.59;5034643;28;20132;-72
2021/07/02 13:08:07;;;;;;;3.38;2.33;;;;;;;24.46;50.44;99206.34;5040217;28;20130;-71
2021/07/02 13:10:35;;;;;;;5.07;2.78;;;;;;;24.02;50.66;99161.84;5025795;28;20051;-71